Time;durP1;ratioP1;P1;durP2;ratioP2;P2;SDS_P1;SDS_P2;PMS_P1;PMS_P2;Temp;Humidity;BMP_temperature;BMP_pressure;BME280_temperature;BME280_humidity;BME280_pressure;Samples;Min_cycle;Max_cycle;Signal;HPM_P1;HPM_P2
2022/12/23 00:02:03;;;;;;;;;;;;;;;16.41;55.31;100253.34;7254150;19;153662;-57
2022/12/23 00:04:30;;;;;;;;;;;;;;;16.42;55.71;100262.53;7251711;19;153773;-57
2022/12/23 00:06:57;;;;;;;;;;;;;;;16.42;55.43;100259.75;7248843;19;154753;-57
2022/12/23 00:09:24;;;;;;;;;;;;;;;16.41;55.60;100261.69;7247075;19;154323;-57
2022/12/23 00:16:51;;;;;;;;;;;;;;;16.39;55.69;100258.41;7249691;19;153405;-57
2022/12/23 00:19:18;;;;;;;;;;;;;;;16.39;55.42;100254.78;7249300;19;153977;-57
2022/12/23 00:21:47;;;;;;;;;;;;;;;16.39;55.40;100272.34;7248726;19;154426;-57
2022/12/23 00:24:14;;;;;;;;;;;;;;;16.38;55.73;100261.47;7250671;19;154888;-57
2022/12/23 00:26:41;;;;;;;;;;;;;;;16.37;55.72;100269.00;7251169;19;153583;-57
2022/12/23 00:29:08;;;;;;;;;;;;;;;16.38;55.72;100269.84;7251911;19;154364;-57
2022/12/23 00:31:35;;;;;;;;;;;;;;;16.36;55.76;100264.56;7248518;19;153578;-57
2022/12/23 00:34:02;;;;;;;;;;;;;;;16.35;55.63;100265.66;7251440;19;153273;-57
2022/12/23 00:36:29;;;;;;;;;;;;;;;16.34;55.63;100257.63;7256578;19;154640;-57
2022/12/23 00:43:57;;;;;;;;;;;;;;;16.34;55.78;100266.81;7251601;19;153054;-57
2022/12/23 00:46:24;;;;;;;;;;;;;;;16.34;55.43;100252.06;7247674;19;154651;-57
2022/12/23 00:51:21;;;;;;;;;;;;;;;16.34;55.44;100271.56;7248841;19;153903;-56
2022/12/23 00:53:48;;;;;;;;;;;;;;;16.34;55.42;100280.75;7246330;19;153447;-57
2022/12/23 00:56:15;;;;;;;;;;;;;;;16.33;55.44;100289.41;7250539;19;153699;-57
2022/12/23 00:58:42;;;;;;;;;;;;;;;16.31;55.56;100298.06;7254390;19;153068;-57
2022/12/23 01:06:09;;;;;;;;;;;;;;;16.31;55.44;100303.63;7243651;19;154054;-57
2022/12/23 01:08:36;;;;;;;;;;;;;;;16.32;55.55;100310.88;7247581;19;154387;-57
2022/12/23 01:11:04;;;;;;;;;;;;;;;16.31;55.22;100317.56;7251062;19;153891;-56
2022/12/23 01:13:32;;;;;;;;;;;;;;;16.31;55.58;100316.72;7245554;19;155949;-56
2022/12/23 01:16:00;;;;;;;;;;;;;;;16.30;55.61;100310.34;7247939;19;152677;-56
2022/12/23 01:18:27;;;;;;;;;;;;;;;16.29;55.68;100300.31;7247734;19;153108;-56
2022/12/23 01:20:54;;;;;;;;;;;;;;;16.29;55.37;100305.06;7254253;19;154801;-57
2022/12/23 01:23:21;;;;;;;;;;;;;;;16.30;55.26;100298.38;7249752;19;153678;-57
2022/12/23 01:25:55;;;;;;;;;;;;;;;16.29;55.22;100307.84;7248997;19;154669;-57
2022/12/23 01:28:22;;;;;;;;;;;;;;;16.29;55.43;100297.53;7249762;19;154908;-57
2022/12/23 01:30:49;;;;;;;;;;;;;;;16.28;55.15;100289.47;7249731;19;153824;-57
2022/12/23 01:33:16;;;;;;;;;;;;;;;16.27;55.50;100273.84;7247200;19;154752;-57
2022/12/23 01:35:43;;;;;;;;;;;;;;;16.28;55.32;100287.50;7249832;19;153057;-57
2022/12/23 01:38:09;;;;;;;;;;;;;;;16.27;55.57;100277.47;7246770;19;155801;-57
2022/12/23 01:40:38;;;;;;;;;;;;;;;16.26;55.27;100273.03;7247514;19;155033;-57
2022/12/23 01:43:05;;;;;;;;;;;;;;;16.26;55.26;100283.38;7254396;19;154247;-57
2022/12/23 01:45:32;;;;;;;;;;;;;;;16.25;55.37;100287.28;7247563;19;153406;-57
2022/12/23 01:48:04;;;;;;;;;;;;;;;16.26;55.59;100283.38;7250593;19;153679;-57
2022/12/23 01:50:31;;;;;;;;;;;;;;;16.25;55.27;100288.09;7248754;19;153852;-57
2022/12/23 01:52:59;;;;;;;;;;;;;;;16.25;55.54;100293.69;7242246;19;154903;-57
2022/12/23 01:55:36;;;;;;;;;;;;;;;16.24;55.39;100297.59;7249963;19;151955;-57
2022/12/23 01:58:07;;;;;;;;;;;;;;;16.25;55.30;100287.28;7248247;19;154612;-57
2022/12/23 02:05:35;;;;;;;;;;;;;;;16.24;55.37;100282.81;7253834;19;153390;-57
2022/12/23 02:10:39;;;;;;;;;;;;;;;16.24;55.22;100280.88;7246901;19;155142;-57
2022/12/23 02:13:09;;;;;;;;;;;;;;;16.23;55.04;100284.78;7244776;19;155064;-56
2022/12/23 02:18:21;;;;;;;;;;;;;;;16.21;55.22;100287.03;7249793;19;154306;-57
2022/12/23 02:20:51;;;;;;;;;;;;;;;16.21;55.24;100287.03;7250915;19;153428;-57
2022/12/23 02:23:21;;;;;;;;;;;;;;;16.21;55.50;100289.00;7255104;19;153558;-57
2022/12/23 02:25:51;;;;;;;;;;;;;;;16.20;55.37;100302.09;7262187;19;153837;-57
2022/12/23 02:28:28;;;;;;;;;;;;;;;16.21;55.23;100300.16;7256545;19;154104;-57
2022/12/23 02:31:00;;;;;;;;;;;;;;;16.22;55.48;100301.78;7252954;19;153270;-57
2022/12/23 02:33:27;;;;;;;;;;;;;;;16.19;55.51;100289.28;7253343;19;154937;-57
2022/12/23 02:36:02;;;;;;;;;;;;;;;16.20;55.32;100299.31;7253419;19;153616;-57
2022/12/23 02:38:33;;;;;;;;;;;;;;;16.20;55.31;100298.47;7254448;19;155303;-57
2022/12/23 02:41:03;;;;;;;;;;;;;;;16.19;55.26;100282.88;7251068;19;153633;-57
2022/12/23 02:43:33;;;;;;;;;;;;;;;16.20;54.99;100277.00;7252076;19;154401;-57
2022/12/23 02:46:06;;;;;;;;;;;;;;;16.20;55.16;100267.81;7255028;19;154505;-57
2022/12/23 02:48:33;;;;;;;;;;;;;;;16.20;55.34;100270.59;7258534;19;154445;-57
2022/12/23 02:51:01;;;;;;;;;;;;;;;16.19;55.27;100253.06;7253225;19;154710;-57
2022/12/23 02:53:31;;;;;;;;;;;;;;;16.19;54.97;100250.25;7251315;19;154765;-57
2022/12/23 02:55:59;;;;;;;;;;;;;;;16.18;55.11;100253.34;7254893;19;151878;-57
2022/12/23 02:58:28;;;;;;;;;;;;;;;16.20;55.06;100259.47;7254135;19;153261;-57
2022/12/23 03:00:56;;;;;;;;;;;;;;;16.19;55.06;100255.84;7250579;19;154036;-57
2022/12/23 03:03:25;;;;;;;;;;;;;;;16.17;55.00;100258.06;7254308;19;153514;-57
2022/12/23 03:05:52;;;;;;;;;;;;;;;16.18;55.29;100272.84;7252571;19;155716;-57
2022/12/23 03:08:22;;;;;;;;;;;;;;;16.17;55.10;100274.78;7251431;19;154373;-57
2022/12/23 03:10:56;;;;;;;;;;;;;;;16.18;55.14;100272.84;7257992;19;153269;-57
2022/12/23 03:13:29;;;;;;;;;;;;;;;16.17;55.16;100277.59;7250894;19;154440;-58
2022/12/23 03:16:04;;;;;;;;;;;;;;;16.18;55.03;100276.47;7254721;19;156319;-57
2022/12/23 03:18:32;;;;;;;;;;;;;;;16.17;55.16;100272.00;7253135;19;156803;-57
2022/12/23 03:21:02;;;;;;;;;;;;;;;16.17;54.95;100277.59;7247695;19;153301;-57
2022/12/23 03:23:31;;;;;;;;;;;;;;;16.16;55.18;100287.09;7249503;19;153921;-57
2022/12/23 03:25:58;;;;;;;;;;;;;;;16.17;55.36;100296.28;7250154;19;152149;-57
2022/12/23 03:28:30;;;;;;;;;;;;;;;16.16;55.26;100297.41;7252317;19;154118;-57
2022/12/23 03:30:58;;;;;;;;;;;;;;;16.15;55.20;100299.38;7250759;19;153931;-57
2022/12/23 03:33:28;;;;;;;;;;;;;;;16.15;55.11;100302.16;7252595;19;155219;-57
2022/12/23 03:35:58;;;;;;;;;;;;;;;16.16;55.22;100297.41;7249232;19;153646;-56
2022/12/23 03:38:27;;;;;;;;;;;;;;;16.14;54.90;100286.53;7251499;19;153332;-57
2022/12/23 03:40:57;;;;;;;;;;;;;;;16.15;55.22;100292.97;7231734;19;154593;-57
2022/12/23 03:43:27;;;;;;;;;;;;;;;16.14;55.27;100289.34;7239680;19;155199;-57
2022/12/23 03:45:58;;;;;;;;;;;;;;;16.14;54.95;100280.13;7251287;19;153648;-57
2022/12/23 03:48:29;;;;;;;;;;;;;;;16.13;55.32;100284.03;7249031;19;153311;-57
2022/12/23 03:50:59;;;;;;;;;;;;;;;16.12;54.96;100285.19;7247309;19;152850;-57
2022/12/23 03:53:29;;;;;;;;;;;;;;;16.13;55.24;100295.19;7249811;19;153367;-57
2022/12/23 03:55:59;;;;;;;;;;;;;;;16.11;55.12;100303.88;7257502;19;153350;-57
2022/12/23 03:58:27;;;;;;;;;;;;;;;16.12;55.00;100293.56;7252502;19;153447;-58
2022/12/23 04:00:58;;;;;;;;;;;;;;;16.13;55.08;100292.41;7251288;19;155403;-57
2022/12/23 04:03:26;;;;;;;;;;;;;;;16.12;55.03;100293.56;7252730;19;153371;-57
2022/12/23 04:05:56;;;;;;;;;;;;;;;16.12;55.42;100286.03;7247276;19;153503;-57
2022/12/23 04:08:26;;;;;;;;;;;;;;;16.11;54.97;100267.63;7247365;19;153785;-57
2022/12/23 04:10:53;;;;;;;;;;;;;;;16.11;54.94;100266.81;7251825;19;153967;-57
2022/12/23 04:13:20;;;;;;;;;;;;;;;16.09;55.40;100253.16;7251827;19;153966;-57
2022/12/23 04:15:47;;;;;;;;;;;;;;;16.10;55.40;100246.47;7231763;19;155306;-57
2022/12/23 04:18:15;;;;;;;;;;;;;;;16.10;55.45;100240.91;7254183;19;153957;-57
2022/12/23 04:20:42;;;;;;;;;;;;;;;16.09;55.20;100222.50;7247734;19;153977;-57
2022/12/23 04:23:09;;;;;;;;;;;;;;;16.08;55.17;100215.28;7244633;19;154163;-57
2022/12/23 04:25:36;;;;;;;;;;;;;;;16.10;55.27;100214.97;7249354;19;152702;-57
2022/12/23 04:28:03;;;;;;;;;;;;;;;16.07;55.26;100205.28;7250235;19;154403;-56
2022/12/23 04:30:30;;;;;;;;;;;;;;;16.09;55.41;100207.75;7250646;19;153266;-57
2022/12/23 04:33:00;;;;;;;;;;;;;;;16.08;54.93;100212.47;7251300;19;153483;-57
2022/12/23 04:35:28;;;;;;;;;;;;;;;16.08;55.26;100212.47;7242821;19;153982;-57
2022/12/23 04:37:55;;;;;;;;;;;;;;;16.08;55.35;100220.03;7256312;19;153567;-58
2022/12/23 04:40:22;;;;;;;;;;;;;;;16.06;55.10;100228.69;7247531;19;153279;-57
2022/12/23 04:42:48;;;;;;;;;;;;;;;16.07;55.38;100223.94;7248667;19;154051;-57
2022/12/23 04:45:15;;;;;;;;;;;;;;;16.07;55.38;100235.94;7250005;19;153752;-58
2022/12/23 04:47:42;;;;;;;;;;;;;;;16.07;55.00;100235.09;7249772;19;153702;-57
2022/12/23 04:50:12;;;;;;;;;;;;;;;16.07;55.14;100222.00;7249387;19;154127;-57
2022/12/23 04:52:40;;;;;;;;;;;;;;;16.06;55.18;100225.91;7249653;19;153268;-57
2022/12/23 04:55:07;;;;;;;;;;;;;;;16.07;55.38;100226.72;7245024;19;154389;-57
2022/12/23 04:57:34;;;;;;;;;;;;;;;16.06;55.25;100211.13;7251471;19;154304;-57
2022/12/23 05:00:00;;;;;;;;;;;;;;;16.06;55.14;100205.56;7255258;19;153659;-57
2022/12/23 05:02:27;;;;;;;;;;;;;;;16.07;55.09;100207.22;7249098;19;155062;-57
2022/12/23 05:04:54;;;;;;;;;;;;;;;16.06;55.10;100209.19;7249216;19;152701;-57
2022/12/23 05:07:21;;;;;;;;;;;;;;;16.06;54.88;100194.41;7249019;19;153731;-57
2022/12/23 05:09:48;;;;;;;;;;;;;;;16.04;55.21;100189.13;7247829;19;152890;-57
2022/12/23 05:12:15;;;;;;;;;;;;;;;16.04;55.14;100197.50;7250702;19;154988;-57
2022/12/23 05:14:42;;;;;;;;;;;;;;;16.05;54.98;100203.91;7246540;19;154153;-57
2022/12/23 05:17:09;;;;;;;;;;;;;;;16.06;55.06;100191.63;7222730;19;153177;-57
2022/12/23 05:19:36;;;;;;;;;;;;;;;16.06;55.27;100172.13;7241222;19;153475;-56
2022/12/23 05:22:02;;;;;;;;;;;;;;;16.05;54.96;100176.88;7247357;19;153838;-57
2022/12/23 05:24:29;;;;;;;;;;;;;;;16.05;55.36;100192.75;7242480;19;154761;-57
2022/12/23 05:26:56;;;;;;;;;;;;;;;16.04;55.23;100178.00;7240249;19;153764;-57
2022/12/23 05:29:26;;;;;;;;;;;;;;;16.03;55.08;100151.28;7246316;19;153215;-57
2022/12/23 05:31:53;;;;;;;;;;;;;;;16.03;55.03;100140.94;7243772;19;153049;-57
2022/12/23 05:34:20;;;;;;;;;;;;;;;16.03;55.34;100140.94;7244290;19;153644;-57
2022/12/23 05:36:47;;;;;;;;;;;;;;;16.04;55.03;100138.97;7241705;19;153604;-57
2022/12/23 05:39:14;;;;;;;;;;;;;;;16.03;55.08;100140.94;7249231;19;153854;-57
2022/12/23 05:41:41;;;;;;;;;;;;;;;16.05;54.97;100137.03;7244616;19;154098;-57
2022/12/23 05:44:08;;;;;;;;;;;;;;;16.03;55.16;100131.78;7256568;19;153772;-57
2022/12/23 05:46:35;;;;;;;;;;;;;;;16.04;55.06;100125.06;7246967;19;154782;-56
2022/12/23 05:49:02;;;;;;;;;;;;;;;16.03;55.09;100124.22;7247089;19;153996;-57
2022/12/23 05:51:29;;;;;;;;;;;;;;;16.04;55.06;100108.34;7246397;19;153999;-57
2022/12/23 05:53:56;;;;;;;;;;;;;;;16.06;55.13;100105.25;7250801;19;154115;-57
2022/12/23 05:56:23;;;;;;;;;;;;;;;16.03;54.73;100096.34;7256658;19;154115;-57
2022/12/23 05:58:50;;;;;;;;;;;;;;;16.04;54.96;100091.63;7257762;19;154303;-57
2022/12/23 06:01:17;;;;;;;;;;;;;;;16.04;55.13;100091.63;7254093;19;153099;-57
2022/12/23 06:03:44;;;;;;;;;;;;;;;16.02;55.10;100100.28;7256680;19;153516;-57
2022/12/23 06:06:11;;;;;;;;;;;;;;;16.01;55.15;100097.81;7259328;19;152609;-57
2022/12/23 06:08:38;;;;;;;;;;;;;;;16.02;54.90;100088.31;7255499;19;153876;-57
2022/12/23 06:11:05;;;;;;;;;;;;;;;16.02;55.06;100083.59;7256366;19;153315;-57
2022/12/23 06:13:32;;;;;;;;;;;;;;;16.01;55.12;100076.34;7256727;19;154106;-57
2022/12/23 06:15:58;;;;;;;;;;;;;;;16.02;55.26;100074.38;7253897;19;153415;-57
2022/12/23 06:18:25;;;;;;;;;;;;;;;16.01;54.81;100056.84;7256464;19;153818;-57
2022/12/23 06:20:52;;;;;;;;;;;;;;;16.01;54.83;100044.88;7251705;19;153912;-57
2022/12/23 06:23:19;;;;;;;;;;;;;;;16.01;55.24;100042.09;7254272;19;153535;-57
2022/12/23 06:25:46;;;;;;;;;;;;;;;16.00;54.82;100032.88;7253333;19;153860;-57
2022/12/23 06:28:13;;;;;;;;;;;;;;;16.00;54.91;100041.25;7261413;19;153320;-57
2022/12/23 06:30:40;;;;;;;;;;;;;;;15.99;55.15;100044.31;7254971;19;154117;-57
2022/12/23 06:33:07;;;;;;;;;;;;;;;15.99;55.19;100028.44;7254707;19;155068;-57
2022/12/23 06:35:34;;;;;;;;;;;;;;;15.99;55.36;100033.19;7251252;19;153423;-57
2022/12/23 06:38:01;;;;;;;;;;;;;;;16.01;55.16;100025.38;7250325;19;154207;-57
2022/12/23 06:40:30;;;;;;;;;;;;;;;16.01;55.01;100020.63;7252972;19;153322;-57
2022/12/23 06:42:56;;;;;;;;;;;;;;;16.01;55.24;100030.94;7252402;19;154306;-57
2022/12/23 06:45:23;;;;;;;;;;;;;;;16.00;55.31;100026.50;7255118;19;154243;-57
2022/12/23 06:47:50;;;;;;;;;;;;;;;16.00;54.99;100006.97;7263526;19;154626;-57
2022/12/23 06:50:17;;;;;;;;;;;;;;;16.00;55.04;100009.78;7250691;19;152783;-56
2022/12/23 06:52:44;;;;;;;;;;;;;;;15.99;55.15;99991.41;7251804;19;154662;-57
2022/12/23 06:55:11;;;;;;;;;;;;;;;15.98;55.41;99982.25;7250011;19;153309;-57
2022/12/23 06:57:38;;;;;;;;;;;;;;;15.99;55.21;99983.88;7255257;19;154556;-57
2022/12/23 07:00:06;;;;;;;;;;;;;;;15.99;54.93;99983.03;7252813;19;153616;-57
2022/12/23 07:02:33;;;;;;;;;;;;;;;16.00;55.11;99984.69;7255985;19;153896;-56
2022/12/23 07:05:00;;;;;;;;;;;;;;;15.98;55.41;99971.09;7250933;19;153282;-57
2022/12/23 07:07:27;;;;;;;;;;;;;;;16.00;55.26;99954.06;7251771;19;153504;-57
2022/12/23 07:09:54;;;;;;;;;;;;;;;15.99;54.85;99942.09;7255500;19;153858;-57
2022/12/23 07:12:21;;;;;;;;;;;;;;;16.00;55.18;99926.19;7253542;19;153459;-56
2022/12/23 07:14:48;;;;;;;;;;;;;;;15.99;55.19;99924.53;7253161;19;153745;-57
2022/12/23 07:17:15;;;;;;;;;;;;;;;15.99;55.24;99916.19;7252069;19;153653;-57
2022/12/23 07:19:41;;;;;;;;;;;;;;;15.99;55.43;99905.88;7252703;19;154569;-57
2022/12/23 07:22:09;;;;;;;;;;;;;;;16.00;54.87;99901.13;7251015;19;154436;-57
2022/12/23 07:24:36;;;;;;;;;;;;;;;16.00;55.25;99901.13;7251968;19;153305;-57
2022/12/23 07:27:03;;;;;;;;;;;;;;;15.99;55.03;99897.50;7249969;19;154348;-58
2022/12/23 07:29:30;;;;;;;;;;;;;;;15.99;55.28;99891.09;7250241;19;153844;-57
2022/12/23 07:31:57;;;;;;;;;;;;;;;15.99;55.17;99888.31;7258194;19;153222;-57
2022/12/23 07:34:24;;;;;;;;;;;;;;;15.98;55.27;99893.09;7250313;19;154301;-57
2022/12/23 07:36:51;;;;;;;;;;;;;;;15.96;55.50;99900.09;7250947;19;153800;-57
2022/12/23 07:39:18;;;;;;;;;;;;;;;15.97;55.24;99910.94;7251275;19;154085;-57
2022/12/23 07:41:45;;;;;;;;;;;;;;;15.98;55.41;99920.13;7252199;19;152657;-57
2022/12/23 07:44:12;;;;;;;;;;;;;;;15.98;55.17;99934.88;7253344;19;154080;-57
2022/12/23 07:46:39;;;;;;;;;;;;;;;15.98;55.37;99925.69;7251305;19;154158;-57
2022/12/23 07:49:06;;;;;;;;;;;;;;;15.97;55.42;99924.84;7254225;19;153321;-57
2022/12/23 07:51:33;;;;;;;;;;;;;;;15.97;55.59;99930.44;7249242;19;154218;-57
2022/12/23 07:54:00;;;;;;;;;;;;;;;15.97;55.34;99921.25;7258847;19;153639;-57
2022/12/23 07:56:27;;;;;;;;;;;;;;;15.96;55.62;99922.38;7247871;19;154213;-57
2022/12/23 07:58:54;;;;;;;;;;;;;;;15.96;55.31;99905.66;7252328;19;153280;-57
2022/12/23 08:01:21;;;;;;;;;;;;;;;15.96;55.55;99888.94;7253173;19;153254;-57
2022/12/23 08:03:48;;;;;;;;;;;;;;;15.97;55.43;99876.69;7252343;19;154057;-57
2022/12/23 08:06:15;;;;;;;;;;;;;;;15.97;55.25;99865.53;7245551;19;153660;-57
2022/12/23 08:08:44;;;;;;;;;;;;;;;15.97;55.34;99859.97;7250422;19;153727;-57
2022/12/23 08:11:12;;;;;;;;;;;;;;;15.96;55.36;99855.50;7252188;19;154087;-57
2022/12/23 08:13:40;;;;;;;;;;;;;;;15.95;55.44;99837.97;7249499;19;153684;-57
2022/12/23 08:16:07;;;;;;;;;;;;;;;15.95;55.52;99826.81;7255147;19;153982;-57
2022/12/23 08:18:35;;;;;;;;;;;;;;;15.95;55.25;99810.13;7248320;19;153085;-57
2022/12/23 08:21:04;;;;;;;;;;;;;;;15.96;55.50;99795.06;7248956;19;154622;-57
2022/12/23 08:23:32;;;;;;;;;;;;;;;15.97;55.43;99805.06;7248529;19;153413;-57
2022/12/23 08:26:02;;;;;;;;;;;;;;;15.96;55.52;99795.06;7249785;19;154223;-57
2022/12/23 08:28:29;;;;;;;;;;;;;;;15.96;55.51;99792.28;7251265;19;152384;-57
2022/12/23 08:30:59;;;;;;;;;;;;;;;15.96;55.67;99797.03;7250821;19;154505;-57
2022/12/23 08:33:26;;;;;;;;;;;;;;;15.97;55.50;99804.25;7251163;19;154463;-57
2022/12/23 08:35:53;;;;;;;;;;;;;;;15.96;55.70;99800.63;7254596;19;153637;-57
2022/12/23 08:38:20;;;;;;;;;;;;;;;15.95;55.27;99800.94;7251797;19;155269;-57
2022/12/23 08:40:47;;;;;;;;;;;;;;;15.96;55.69;99802.59;7252502;19;153916;-56
2022/12/23 08:43:14;;;;;;;;;;;;;;;15.95;55.63;99792.56;7252733;19;153517;-56
2022/12/23 08:45:41;;;;;;;;;;;;;;;15.93;55.26;99765.03;7250342;19;154910;-56
2022/12/23 08:48:08;;;;;;;;;;;;;;;15.95;55.36;99756.38;7250322;19;153972;-57
2022/12/23 08:50:37;;;;;;;;;;;;;;;15.95;55.76;99745.22;7249098;19;153226;-57
2022/12/23 08:53:05;;;;;;;;;;;;;;;15.96;55.45;99711.50;7246902;19;154008;-57
2022/12/23 08:55:35;;;;;;;;;;;;;;;15.96;55.44;99717.06;7250869;19;153767;-57
2022/12/23 08:58:02;;;;;;;;;;;;;;;15.96;55.58;99722.63;7258267;19;154497;-57
2022/12/23 09:00:29;;;;;;;;;;;;;;;15.93;55.69;99758.66;7250932;19;153676;-57
2022/12/23 09:02:56;;;;;;;;;;;;;;;15.94;55.51;99740.81;7249391;19;154420;-57
2022/12/23 09:05:23;;;;;;;;;;;;;;;15.95;55.43;99711.78;7247301;19;153502;-57
2022/12/23 09:07:50;;;;;;;;;;;;;;;15.95;55.32;99665.28;7249053;19;153478;-57
2022/12/23 09:10:17;;;;;;;;;;;;;;;15.95;55.67;99643.00;7250571;19;154542;-57
2022/12/23 09:12:44;;;;;;;;;;;;;;;15.94;55.20;99677.53;7249414;19;153881;-56
2022/12/23 09:15:11;;;;;;;;;;;;;;;15.93;55.58;99716.88;7249357;19;153336;-57
2022/12/23 09:17:38;;;;;;;;;;;;;;;15.93;55.54;99723.25;7250831;19;154256;-57
2022/12/23 09:20:05;;;;;;;;;;;;;;;15.94;55.42;99701.81;7254580;19;154038;-57
2022/12/23 09:22:32;;;;;;;;;;;;;;;15.94;55.63;99736.03;7249926;19;154543;-57
2022/12/23 09:25:00;;;;;;;;;;;;;;;15.93;55.86;99776.19;7246677;19;154603;-57
2022/12/23 09:27:31;;;;;;;;;;;;;;;15.92;55.87;99754.19;7251784;19;153557;-57
2022/12/23 09:29:58;;;;;;;;;;;;;;;15.94;55.63;99688.69;7256561;19;153561;-57
2022/12/23 09:32:25;;;;;;;;;;;;;;;15.94;55.60;99655.25;7256727;19;154828;-57
2022/12/23 09:34:52;;;;;;;;;;;;;;;15.95;55.46;99628.22;7257443;19;153862;-57
2022/12/23 09:37:19;;;;;;;;;;;;;;;15.94;55.83;99643.31;7254462;19;153732;-56
2022/12/23 09:39:46;;;;;;;;;;;;;;;15.95;55.71;99664.44;7253657;19;155044;-57
2022/12/23 09:42:16;;;;;;;;;;;;;;;15.95;55.76;99686.72;7261848;19;152506;-57
2022/12/23 09:44:46;;;;;;;;;;;;;;;15.94;55.58;99685.91;7255343;19;154005;-57
2022/12/23 09:47:16;;;;;;;;;;;;;;;15.93;55.87;99662.00;7256347;19;152672;-57
2022/12/23 09:49:46;;;;;;;;;;;;;;;15.94;55.49;99680.31;7256502;19;152000;-57
2022/12/23 09:52:17;;;;;;;;;;;;;;;15.93;55.66;99678.69;7249705;19;153955;-57
2022/12/23 09:54:47;;;;;;;;;;;;;;;15.93;55.61;99667.56;7257271;19;153834;-57
2022/12/23 09:57:14;;;;;;;;;;;;;;;15.94;55.84;99668.38;7253504;19;154097;-57
2022/12/23 09:59:42;;;;;;;;;;;;;;;15.93;55.82;99655.59;7253640;19;153429;-57
2022/12/23 10:02:12;;;;;;;;;;;;;;;15.93;55.86;99661.16;7253747;19;152811;-57
2022/12/23 10:04:39;;;;;;;;;;;;;;;15.93;55.81;99669.50;7262129;19;154510;-57
2022/12/23 10:07:15;;;;;;;;;;;;;;;15.94;55.74;99671.16;7252553;19;152368;-57
2022/12/23 10:09:44;;;;;;;;;;;;;;;15.94;55.75;99651.69;7252224;19;154271;-56
2022/12/23 10:12:14;;;;;;;;;;;;;;;15.94;55.77;99658.03;7252447;19;153927;-57
2022/12/23 10:14:42;;;;;;;;;;;;;;;15.94;55.86;99669.19;7256653;19;153975;-57
2022/12/23 10:17:15;;;;;;;;;;;;;;;15.93;55.70;99662.00;7254180;19;153538;-57
2022/12/23 10:19:44;;;;;;;;;;;;;;;15.93;56.03;99650.84;7255081;19;154908;-57
2022/12/23 10:22:15;;;;;;;;;;;;;;;15.94;55.79;99660.03;7255095;19;153685;-57
2022/12/23 10:24:44;;;;;;;;;;;;;;;15.94;55.76;99651.69;7253957;19;154251;-57
2022/12/23 10:27:11;;;;;;;;;;;;;;;15.93;55.67;99647.22;7262031;19;154942;-57
2022/12/23 10:29:39;;;;;;;;;;;;;;;15.93;56.03;99658.38;7250736;19;152947;-57
2022/12/23 10:32:09;;;;;;;;;;;;;;;15.93;55.84;99655.59;7252474;19;154476;-57
2022/12/23 10:34:42;;;;;;;;;;;;;;;15.92;55.88;99651.16;7254166;19;153615;-56
2022/12/23 10:37:16;;;;;;;;;;;;;;;15.91;56.26;99644.75;7249270;19;152982;-57
2022/12/23 10:39:51;;;;;;;;;;;;;;;15.93;55.94;99653.63;7252396;19;153829;-57
2022/12/23 10:42:20;;;;;;;;;;;;;;;15.92;56.25;99643.63;7252139;19;153585;-57
2022/12/23 10:44:52;;;;;;;;;;;;;;;15.92;56.10;99642.78;7254972;19;153995;-57
2022/12/23 10:47:30;;;;;;;;;;;;;;;15.92;56.24;99651.16;7261165;19;155043;-57
2022/12/23 10:50:00;;;;;;;;;;;;;;;15.93;56.31;99641.66;7251902;19;154736;-57
2022/12/23 10:52:28;;;;;;;;;;;;;;;15.94;55.99;99641.34;7250163;19;153397;-57
2022/12/23 10:54:55;;;;;;;;;;;;;;;15.94;55.89;99640.53;7254780;19;153348;-57
2022/12/23 10:57:23;;;;;;;;;;;;;;;15.94;56.11;99640.53;7249368;19;154566;-57
2022/12/23 10:59:50;;;;;;;;;;;;;;;15.93;56.12;99666.72;7253197;19;154687;-57
2022/12/23 11:02:20;;;;;;;;;;;;;;;15.93;56.34;99645.28;7254552;19;152458;-57
2022/12/23 11:04:48;;;;;;;;;;;;;;;15.94;56.39;99651.69;7257519;19;155869;-57
2022/12/23 11:07:18;;;;;;;;;;;;;;;15.94;56.17;99651.69;7247959;19;153684;-57
2022/12/23 11:10:12;;;;;;;;;;;;;;;15.94;56.22;99638.53;7257918;19;155306;-57
2022/12/23 11:12:41;;;;;;;;;;;;;;;15.95;56.27;99636.59;7255522;19;154027;-56
2022/12/23 11:15:11;;;;;;;;;;;;;;;15.94;56.10;99641.34;7253678;19;153628;-57
2022/12/23 11:17:38;;;;;;;;;;;;;;;15.95;56.13;99648.56;7253296;19;154366;-57
2022/12/23 11:20:08;;;;;;;;;;;;;;;15.94;56.19;99646.09;7250202;19;154065;-57
2022/12/23 11:22:45;;;;;;;;;;;;;;;15.94;56.15;99643.31;7253955;19;153870;-57
2022/12/23 11:25:24;;;;;;;;;;;;;;;15.94;56.29;99646.91;7251770;19;153370;-57
2022/12/23 11:27:55;;;;;;;;;;;;;;;15.94;56.24;99640.53;7248624;19;154436;-57
2022/12/23 11:30:22;;;;;;;;;;;;;;;15.93;56.53;99645.28;7253244;19;154198;-57
2022/12/23 11:32:50;;;;;;;;;;;;;;;15.94;56.27;99634.97;7259977;19;153549;-57
2022/12/23 11:35:23;;;;;;;;;;;;;;;15.95;56.26;99636.59;7249960;19;153572;-57
2022/12/23 11:37:50;;;;;;;;;;;;;;;15.93;56.48;99633.31;7246872;19;154109;-57
2022/12/23 11:40:20;;;;;;;;;;;;;;;15.95;56.45;99637.41;7249530;19;155398;-57
2022/12/23 11:42:47;;;;;;;;;;;;;;;15.95;56.36;99642.16;7253548;19;153075;-57
2022/12/23 11:45:23;;;;;;;;;;;;;;;15.95;56.44;99643.00;7254363;19;154293;-56
2022/12/23 11:47:50;;;;;;;;;;;;;;;15.95;56.46;99645.78;7251758;19;154038;-56
2022/12/23 11:50:18;;;;;;;;;;;;;;;15.96;56.34;99650.22;7247911;19;153679;-56
2022/12/23 11:52:48;;;;;;;;;;;;;;;15.96;56.59;99641.03;7251169;19;154183;-56
2022/12/23 11:55:23;;;;;;;;;;;;;;;15.97;56.54;99642.69;7258916;19;155538;-57
2022/12/23 11:57:50;;;;;;;;;;;;;;;15.96;56.73;99641.88;7251292;19;152916;-57
2022/12/23 12:00:20;;;;;;;;;;;;;;;15.96;56.61;99635.47;7250627;19;152453;-58
2022/12/23 12:02:51;;;;;;;;;;;;;;;15.98;56.85;99630.41;7252319;19;153728;-57
2022/12/23 12:05:21;;;;;;;;;;;;;;;15.98;56.92;99627.63;7249636;19;154441;-57
2022/12/23 12:07:50;;;;;;;;;;;;;;;15.99;56.54;99626.47;7248464;19;153517;-57
2022/12/23 12:10:21;;;;;;;;;;;;;;;15.98;56.91;99634.03;7250162;19;155376;-57
2022/12/23 12:12:50;;;;;;;;;;;;;;;15.99;56.75;99616.16;7254782;19;153063;-57
2022/12/23 12:15:23;;;;;;;;;;;;;;;16.01;57.07;99621.44;7250956;19;153195;-57
2022/12/23 12:17:51;;;;;;;;;;;;;;;16.02;56.90;99620.31;7257113;19;154129;-57
2022/12/23 12:20:19;;;;;;;;;;;;;;;16.03;57.12;99613.59;7249952;19;153901;-57
2022/12/23 12:22:49;;;;;;;;;;;;;;;16.05;57.31;99618.84;7251981;19;152574;-57
2022/12/23 12:25:18;;;;;;;;;;;;;;;16.06;57.05;99626.91;7252485;19;153942;-57
2022/12/23 12:27:48;;;;;;;;;;;;;;;16.05;57.16;99625.25;7249235;19;154608;-57
2022/12/23 12:30:18;;;;;;;;;;;;;;;16.07;57.58;99617.41;7251354;19;154352;-57
2022/12/23 12:32:46;;;;;;;;;;;;;;;16.07;57.40;99623.00;7251545;19;154519;-57
2022/12/23 12:35:17;;;;;;;;;;;;;;;16.10;57.14;99627.09;7248126;19;153140;-56
2022/12/23 12:37:44;;;;;;;;;;;;;;;16.10;57.38;99639.06;7248268;19;153740;-57
2022/12/23 12:40:14;;;;;;;;;;;;;;;16.10;57.28;99641.03;7257213;19;153531;-57
2022/12/23 12:42:43;;;;;;;;;;;;;;;16.09;57.57;99636.59;7251319;19;153649;-57
2022/12/23 12:45:13;;;;;;;;;;;;;;;16.10;57.56;99641.84;7252739;19;154487;-57
2022/12/23 12:47:43;;;;;;;;;;;;;;;16.10;57.65;99641.84;7251077;19;154202;-56
2022/12/23 12:50:24;;;;;;;;;;;;;;;16.11;57.39;99637.13;7249326;19;153139;-57
2022/12/23 12:52:54;;;;;;;;;;;;;;;16.12;57.60;99639.59;7249141;19;153842;-57
2022/12/23 12:55:25;;;;;;;;;;;;;;;16.13;57.72;99638.44;7247984;19;153776;-56
2022/12/23 12:57:52;;;;;;;;;;;;;;;16.15;57.59;99638.13;7250770;19;152969;-56
2022/12/23 13:00:20;;;;;;;;;;;;;;;16.15;57.82;99633.41;7256710;19;154037;-57
2022/12/23 13:02:51;;;;;;;;;;;;;;;16.14;58.10;99634.53;7248712;19;154044;-57
2022/12/23 13:05:21;;;;;;;;;;;;;;;16.17;58.14;99641.44;7249025;19;154059;-57